Gateway, Arkansas
Current Conditions -  °F | °C
As of 1:57 AM on Thursday 27 Nov 2014 (Local Time) from KROG Reporting Station
Overcast Overcast  
Wind Chill: 21°   Ceiling: 2000
Heat Index: 30°   Visibility: 10mi
Dew Point: 23°   Wind: 10mph
Humidity: 75%   Direction: 330°NNW
Pressure: 30.41"   Gusts: 20mph
Location:  36.49°N, 93.93°W
Report Text: KROG 270757Z AUTO 33009G17KT 10SM OVC020 M01/M05 A3041 RMK AO2 SLP304 T10111050 TSNO
Loading
Personal Weather Stations






























Interactive Weather Map New forecast layout! Learn more

10-Day Weather Forecast

Advertisements
Track Severe Weather on mobile